sensor_id;sensor_type;location;lat;lon;timestamp;pressure;altitude;pressure_sealevel;temperature;humidity
22775;BME280;11554;51.106;3.684;2022-09-17T00:00:00;101657.64;;;10.30;100.0
22775;BME280;11554;51.106;3.684;2022-09-17T00:05:00;101662.53;;;10.29;100.0
22775;BME280;11554;51.106;3.684;2022-09-17T00:10:00;101657.47;;;10.28;100.0
22775;BME280;11554;51.106;3.684;2022-09-17T00:15:00;101668.05;;;10.29;100.0
22775;BME280;11554;51.106;3.684;2022-09-17T00:20:00;101682.12;;;10.32;100.0
22775;BME280;11554;51.106;3.684;2022-09-17T00:25:00;101670.43;;;10.31;100.0
22775;BME280;11554;51.106;3.684;2022-09-17T00:30:00;101667.6;;;10.30;100.0
22775;BME280;11554;51.106;3.684;2022-09-17T00:35:00;101663.51;;;10.29;100.0
22775;BME280;11554;51.106;3.684;2022-09-17T00:40:00;101661.99;;;10.30;100.0
22775;BME280;11554;51.106;3.684;2022-09-17T00:45:00;101659.5;;;10.31;100.0
22775;BME280;11554;51.106;3.684;2022-09-17T00:50:01;101659.7;;;10.36;100.0
22775;BME280;11554;51.106;3.684;2022-09-17T00:55:02;101668.24;;;10.36;100.0
22775;BME280;11554;51.106;3.684;2022-09-17T01:00:00;101674.41;;;10.37;100.0
22775;BME280;11554;51.106;3.684;2022-09-17T01:05:00;101679.58;;;10.40;100.0
22775;BME280;11554;51.106;3.684;2022-09-17T01:10:02;101686.61;;;10.45;100.0
22775;BME280;11554;51.106;3.684;2022-09-17T01:15:03;101680.44;;;10.49;100.0
22775;BME280;11554;51.106;3.684;2022-09-17T01:20:06;101676.72;;;10.48;100.0
22775;BME280;11554;51.106;3.684;2022-09-17T01:25:05;101674.61;;;10.43;100.0
22775;BME280;11554;51.106;3.684;2022-09-17T01:30:06;101671.42;;;10.33;100.0
22775;BME280;11554;51.106;3.684;2022-09-17T01:35:00;101670.97;;;10.16;100.0
22775;BME280;11554;51.106;3.684;2022-09-17T01:40:01;101672.32;;;9.93;100.0
22775;BME280;11554;51.106;3.684;2022-09-17T01:45:01;101676.48000000001;;;9.72;100.0
22775;BME280;11554;51.106;3.684;2022-09-17T01:50:00;101671.95;;;9.43;100.0
22775;BME280;11554;51.106;3.684;2022-09-17T01:55:01;101672.08;;;9.34;100.0
22775;BME280;11554;51.106;3.684;2022-09-17T02:00:00;101675.73;;;9.20;100.0
22775;BME280;11554;51.106;3.684;2022-09-17T02:05:02;101672.24;;;9.06;100.0
22775;BME280;11554;51.106;3.684;2022-09-17T02:10:01;101676.49;;;8.90;100.0
22775;BME280;11554;51.106;3.684;2022-09-17T02:15:00;101676.92;;;8.75;100.0
22775;BME280;11554;51.106;3.684;2022-09-17T02:20:00;101676.42;;;8.69;100.0
22775;BME280;11554;51.106;3.684;2022-09-17T02:25:01;101674.65999999999;;;8.61;100.0
22775;BME280;11554;51.106;3.684;2022-09-17T02:30:00;101670.4;;;8.47;100.0
22775;BME280;11554;51.106;3.684;2022-09-17T02:35:00;101667.1;;;8.38;100.0
22775;BME280;11554;51.106;3.684;2022-09-17T02:40:00;101670.23000000001;;;8.33;100.0
22775;BME280;11554;51.106;3.684;2022-09-17T02:45:02;101664.67;;;8.42;100.0
22775;BME280;11554;51.106;3.684;2022-09-17T02:50:03;101665.20000000001;;;8.50;100.0
22775;BME280;11554;51.106;3.684;2022-09-17T02:55:01;101667.28;;;8.56;100.0
22775;BME280;11554;51.106;3.684;2022-09-17T03:00:03;101691.14;;;8.68;100.0
22775;BME280;11554;51.106;3.684;2022-09-17T03:05:00;101695.42;;;9.12;100.0
22775;BME280;11554;51.106;3.684;2022-09-17T03:10:00;101693.82;;;9.25;100.0
22775;BME280;11554;51.106;3.684;2022-09-17T03:15:00;101683.91;;;9.33;100.0
22775;BME280;11554;51.106;3.684;2022-09-17T03:20:00;101670.67;;;9.34;100.0
22775;BME280;11554;51.106;3.684;2022-09-17T03:25:00;101671.69;;;9.33;100.0
22775;BME280;11554;51.106;3.684;2022-09-17T03:30:00;101679.68;;;9.34;100.0
22775;BME280;11554;51.106;3.684;2022-09-17T03:35:00;101689.58;;;9.53;100.0
22775;BME280;11554;51.106;3.684;2022-09-17T03:40:00;101671.56;;;9.66;100.0
22775;BME280;11554;51.106;3.684;2022-09-17T03:45:00;101667.11;;;9.64;100.0
22775;BME280;11554;51.106;3.684;2022-09-17T03:50:00;101670.48;;;9.60;100.0
22775;BME280;11554;51.106;3.684;2022-09-17T03:55:00;101671.09;;;9.52;100.0
22775;BME280;11554;51.106;3.684;2022-09-17T04:00:00;101697.6;;;9.56;100.0
22775;BME280;11554;51.106;3.684;2022-09-17T04:05:00;101697.25;;;9.59;100.0
22775;BME280;11554;51.106;3.684;2022-09-17T04:10:00;101705.45;;;9.66;100.0
22775;BME280;11554;51.106;3.684;2022-09-17T04:15:00;101701.84000000001;;;9.68;100.0
22775;BME280;11554;51.106;3.684;2022-09-17T04:20:00;101697.83;;;9.69;100.0
22775;BME280;11554;51.106;3.684;2022-09-17T04:25:00;101694.73000000001;;;9.69;100.0
22775;BME280;11554;51.106;3.684;2022-09-17T04:30:00;101693.59;;;9.68;100.0
22775;BME280;11554;51.106;3.684;2022-09-17T04:35:00;101703.66;;;9.71;100.0
22775;BME280;11554;51.106;3.684;2022-09-17T04:40:00;101702.47;;;9.74;100.0
22775;BME280;11554;51.106;3.684;2022-09-17T04:45:00;101704.26999999999;;;9.70;100.0
22775;BME280;11554;51.106;3.684;2022-09-17T04:50:00;101706.81;;;9.55;100.0
22775;BME280;11554;51.106;3.684;2022-09-17T04:55:00;101706.12999999999;;;9.44;100.0
22775;BME280;11554;51.106;3.684;2022-09-17T05:00:00;101706.5;;;9.37;100.0
22775;BME280;11554;51.106;3.684;2022-09-17T05:05:00;101711.29;;;9.46;100.0
22775;BME280;11554;51.106;3.684;2022-09-17T05:10:00;101715.61;;;9.53;100.0
22775;BME280;11554;51.106;3.684;2022-09-17T05:15:00;101710.92;;;9.60;100.0
22775;BME280;11554;51.106;3.684;2022-09-17T05:20:00;101706.03;;;9.65;100.0
22775;BME280;11554;51.106;3.684;2022-09-17T05:25:00;101710.08;;;9.71;100.0
22775;BME280;11554;51.106;3.684;2022-09-17T05:30:00;101713.72;;;9.73;100.0
22775;BME280;11554;51.106;3.684;2022-09-17T05:35:00;101718.62999999999;;;9.76;100.0
22775;BME280;11554;51.106;3.684;2022-09-17T05:40:00;101714.51;;;9.82;100.0
22775;BME280;11554;51.106;3.684;2022-09-17T05:45:00;101718.6;;;9.89;100.0
22775;BME280;11554;51.106;3.684;2022-09-17T05:50:00;101712.32;;;9.86;100.0
22775;BME280;11554;51.106;3.684;2022-09-17T05:55:00;101718.47;;;9.76;100.0
22775;BME280;11554;51.106;3.684;2022-09-17T06:00:00;101719.12999999999;;;9.68;100.0
22775;BME280;11554;51.106;3.684;2022-09-17T06:05:00;101732.56;;;9.66;100.0
22775;BME280;11554;51.106;3.684;2022-09-17T06:10:00;101729.36;;;9.71;100.0
22775;BME280;11554;51.106;3.684;2022-09-17T06:15:00;101729.78;;;9.75;100.0
22775;BME280;11554;51.106;3.684;2022-09-17T06:20:00;101731.52;;;9.77;100.0
22775;BME280;11554;51.106;3.684;2022-09-17T06:25:00;101746.8;;;9.84;100.0
22775;BME280;11554;51.106;3.684;2022-09-17T06:30:00;101758.48;;;10.01;100.0
22775;BME280;11554;51.106;3.684;2022-09-17T06:35:00;101781.42;;;10.24;100.0
22775;BME280;11554;51.106;3.684;2022-09-17T06:40:00;101767.62999999999;;;10.34;100.0
22775;BME280;11554;51.106;3.684;2022-09-17T06:45:00;101773.83;;;10.60;100.0
22775;BME280;11554;51.106;3.684;2022-09-17T06:50:00;101779.38;;;10.79;100.0
22775;BME280;11554;51.106;3.684;2022-09-17T06:55:00;101780.74;;;10.66;100.0
22775;BME280;11554;51.106;3.684;2022-09-17T07:00:00;101759.46;;;10.61;100.0
22775;BME280;11554;51.106;3.684;2022-09-17T07:05:00;101764.93000000001;;;10.77;100.0
22775;BME280;11554;51.106;3.684;2022-09-17T07:10:00;101762.87;;;10.97;100.0
22775;BME280;11554;51.106;3.684;2022-09-17T07:15:00;101765.13;;;11.46;100.0
22775;BME280;11554;51.106;3.684;2022-09-17T07:20:00;101767.42;;;11.55;100.0
22775;BME280;11554;51.106;3.684;2022-09-17T07:25:00;101778.91;;;11.28;100.0
22775;BME280;11554;51.106;3.684;2022-09-17T07:30:00;101768.09;;;11.12;100.0
22775;BME280;11554;51.106;3.684;2022-09-17T07:35:00;101766.22;;;11.00;100.0
22775;BME280;11554;51.106;3.684;2022-09-17T07:40:00;101770.26;;;11.45;100.0
22775;BME280;11554;51.106;3.684;2022-09-17T07:45:00;101770.51;;;12.71;100.0
22775;BME280;11554;51.106;3.684;2022-09-17T07:50:00;101774.63;;;13.59;100.0
22775;BME280;11554;51.106;3.684;2022-09-17T07:55:00;101776.17;;;13.62;100.0
22775;BME280;11554;51.106;3.684;2022-09-17T08:00:00;101773.25;;;13.56;100.0
22775;BME280;11554;51.106;3.684;2022-09-17T08:05:00;101771.19;;;13.32;100.0
22775;BME280;11554;51.106;3.684;2022-09-17T08:10:00;101772.24;;;13.28;100.0
22775;BME280;11554;51.106;3.684;2022-09-17T08:15:00;101780.52;;;13.69;100.0
22775;BME280;11554;51.106;3.684;2022-09-17T08:20:00;101775.29;;;14.11;100.0
22775;BME280;11554;51.106;3.684;2022-09-17T08:25:00;101774.15;;;14.81;100.0
22775;BME280;11554;51.106;3.684;2022-09-17T08:30:00;101784.53;;;15.15;100.0
22775;BME280;11554;51.106;3.684;2022-09-17T08:35:00;101799.17;;;14.88;100.0
22775;BME280;11554;51.106;3.684;2022-09-17T08:40:00;101805.47;;;15.10;99.76
22775;BME280;11554;51.106;3.684;2022-09-17T08:45:01;101810.65999999999;;;14.68;100.0
22775;BME280;11554;51.106;3.684;2022-09-17T08:50:00;101823.55;;;14.14;100.0
22775;BME280;11554;51.106;3.684;2022-09-17T08:55:01;101827.47;;;13.25;100.0
22775;BME280;11554;51.106;3.684;2022-09-17T09:00:00;101833.7;;;12.99;100.0
22775;BME280;11554;51.106;3.684;2022-09-17T09:05:01;101850.55;;;12.56;100.0
22775;BME280;11554;51.106;3.684;2022-09-17T09:10:04;101842.69;;;12.20;100.0
22775;BME280;11554;51.106;3.684;2022-09-17T09:15:00;101840.8;;;12.14;100.0
22775;BME280;11554;51.106;3.684;2022-09-17T09:20:00;101855.36;;;11.89;100.0
22775;BME280;11554;51.106;3.684;2022-09-17T09:25:02;101853.11;;;11.63;100.0
22775;BME280;11554;51.106;3.684;2022-09-17T09:30:01;101854.85;;;11.36;100.0
22775;BME280;11554;51.106;3.684;2022-09-17T09:35:00;101857.64;;;11.37;100.0
22775;BME280;11554;51.106;3.684;2022-09-17T09:40:02;101855.22;;;11.40;100.0
22775;BME280;11554;51.106;3.684;2022-09-17T09:45:00;101845.87;;;11.27;100.0
22775;BME280;11554;51.106;3.684;2022-09-17T09:50:09;101851.15;;;11.38;100.0
22775;BME280;11554;51.106;3.684;2022-09-17T09:55:04;101843.26999999999;;;11.71;100.0
22775;BME280;11554;51.106;3.684;2022-09-17T10:05:06;101831.8;;;12.80;100.0
22775;BME280;11554;51.106;3.684;2022-09-17T10:10:07;101856.12999999999;;;12.53;100.0
22775;BME280;11554;51.106;3.684;2022-09-17T10:15:03;101852.23;;;12.10;100.0
22775;BME280;11554;51.106;3.684;2022-09-17T10:20:11;101845.86;;;12.01;100.0
22775;BME280;11554;51.106;3.684;2022-09-17T10:25:00;101841.89;;;12.94;100.0
22775;BME280;11554;51.106;3.684;2022-09-17T10:30:01;101851.39;;;13.25;100.0
22775;BME280;11554;51.106;3.684;2022-09-17T10:35:00;101856.28;;;12.56;100.0
22775;BME280;11554;51.106;3.684;2022-09-17T10:40:00;101855.03;;;12.46;100.0
22775;BME280;11554;51.106;3.684;2022-09-17T10:45:00;101850.59;;;12.93;100.0
22775;BME280;11554;51.106;3.684;2022-09-17T10:50:00;101838.51;;;13.26;100.0
22775;BME280;11554;51.106;3.684;2022-09-17T10:55:06;101827.42;;;13.95;100.0
22775;BME280;11554;51.106;3.684;2022-09-17T11:00:02;101819.12;;;14.98;100.0
22775;BME280;11554;51.106;3.684;2022-09-17T11:05:01;101807.81;;;15.60;100.0
22775;BME280;11554;51.106;3.684;2022-09-17T11:10:04;101798.42;;;16.09;100.0
22775;BME280;11554;51.106;3.684;2022-09-17T11:15:00;101789.92;;;16.78;98.68
22775;BME280;11554;51.106;3.684;2022-09-17T11:20:00;101790.45;;;17.21;95.98
22775;BME280;11554;51.106;3.684;2022-09-17T11:30:04;101804.25;;;15.50;97.54
22775;BME280;11554;51.106;3.684;2022-09-17T11:35:01;101804.13;;;16.47;96.15
22775;BME280;11554;51.106;3.684;2022-09-17T11:40:01;101805.04;;;16.73;91.75
22775;BME280;11554;51.106;3.684;2022-09-17T11:45:01;101801.79000000001;;;17.28;89.39
22775;BME280;11554;51.106;3.684;2022-09-17T11:50:00;101820.62;;;17.18;84.25
22775;BME280;11554;51.106;3.684;2022-09-17T11:55:02;101824.56;;;16.75;90.56
22775;BME280;11554;51.106;3.684;2022-09-17T12:00:01;101816.06;;;16.79;89.77
22775;BME280;11554;51.106;3.684;2022-09-17T12:05:00;101807.73000000001;;;17.24;85.35
22775;BME280;11554;51.106;3.684;2022-09-17T12:10:03;101804.21;;;17.81;86.49
22775;BME280;11554;51.106;3.684;2022-09-17T12:15:01;101804.16;;;17.50;84.61
22775;BME280;11554;51.106;3.684;2022-09-17T12:20:01;101798.44;;;17.71;82.51
22775;BME280;11554;51.106;3.684;2022-09-17T12:25:00;101799.98000000001;;;17.82;83.77
22775;BME280;11554;51.106;3.684;2022-09-17T12:30:04;101790.23;;;18.24;81.24
22775;BME280;11554;51.106;3.684;2022-09-17T12:35:01;101790.47;;;18.10;76.74
22775;BME280;11554;51.106;3.684;2022-09-17T12:40:10;101773.5;;;18.49;80.42
22775;BME280;11554;51.106;3.684;2022-09-17T12:45:06;101779.5;;;19.36;77.38
22775;BME280;11554;51.106;3.684;2022-09-17T12:50:02;101836.03;;;18.29;76.73
22775;BME280;11554;51.106;3.684;2022-09-17T12:55:07;101833.15;;;15.74;87.95
22775;BME280;11554;51.106;3.684;2022-09-17T13:00:02;101828.38;;;16.09;93.33
22775;BME280;11554;51.106;3.684;2022-09-17T13:05:05;101814.76;;;17.23;89.93
22775;BME280;11554;51.106;3.684;2022-09-17T13:10:02;101813.23;;;17.63;90.97
22775;BME280;11554;51.106;3.684;2022-09-17T13:15:03;101820.45000000001;;;17.37;89.37
22775;BME280;11554;51.106;3.684;2022-09-17T13:20:01;101831.24;;;16.40;92.4
22775;BME280;11554;51.106;3.684;2022-09-17T13:25:01;101814.23;;;15.67;93.38
22775;BME280;11554;51.106;3.684;2022-09-17T13:30:00;101822.55;;;15.66;96.84
22775;BME280;11554;51.106;3.684;2022-09-17T13:35:03;101831.95;;;15.58;97.82
22775;BME280;11554;51.106;3.684;2022-09-17T13:40:00;101825.67;;;15.93;97.62
22775;BME280;11554;51.106;3.684;2022-09-17T13:45:01;101816.42;;;15.89;93.61
22775;BME280;11554;51.106;3.684;2022-09-17T13:50:00;101810.20999999999;;;16.86;91.56
22775;BME280;11554;51.106;3.684;2022-09-17T13:55:00;101817.33;;;18.04;90.06
22775;BME280;11554;51.106;3.684;2022-09-17T14:00:00;101835.5;;;16.33;88.19
22775;BME280;11554;51.106;3.684;2022-09-17T14:10:00;101855.24;;;14.61;92.59
22775;BME280;11554;51.106;3.684;2022-09-17T14:15:00;101852.01;;;14.26;96.04
22775;BME280;11554;51.106;3.684;2022-09-17T14:20:00;101855.08;;;14.37;99.08
22775;BME280;11554;51.106;3.684;2022-09-17T14:25:00;101855.04;;;14.43;99.35
22775;BME280;11554;51.106;3.684;2022-09-17T14:30:03;101851.75;;;14.69;98.6
22775;BME280;11554;51.106;3.684;2022-09-17T14:35:00;101843.86;;;15.43;97.11
22775;BME280;11554;51.106;3.684;2022-09-17T14:40:00;101847.92;;;15.34;95.54
22775;BME280;11554;51.106;3.684;2022-09-17T14:45:01;101853.0;;;14.79;96.57
22775;BME280;11554;51.106;3.684;2022-09-17T14:55:07;101859.45;;;14.68;100.0
22775;BME280;11554;51.106;3.684;2022-09-17T15:00:00;101857.89;;;14.13;100.0
22775;BME280;11554;51.106;3.684;2022-09-17T15:05:00;101856.08;;;14.13;100.0
22775;BME280;11554;51.106;3.684;2022-09-17T15:10:08;101864.56;;;14.26;100.0
22775;BME280;11554;51.106;3.684;2022-09-17T15:15:00;101865.34;;;13.78;100.0
22775;BME280;11554;51.106;3.684;2022-09-17T15:20:02;101868.75;;;13.38;100.0
22775;BME280;11554;51.106;3.684;2022-09-17T15:25:01;101870.28;;;13.26;100.0
22775;BME280;11554;51.106;3.684;2022-09-17T15:30:01;101863.48000000001;;;13.10;100.0
22775;BME280;11554;51.106;3.684;2022-09-17T15:40:00;101872.33;;;12.93;100.0
22775;BME280;11554;51.106;3.684;2022-09-17T15:45:05;101864.53;;;13.04;100.0
22775;BME280;11554;51.106;3.684;2022-09-17T15:50:06;101878.39;;;12.92;100.0
22775;BME280;11554;51.106;3.684;2022-09-17T15:55:00;101880.66;;;12.83;100.0
22775;BME280;11554;51.106;3.684;2022-09-17T16:00:10;101856.73000000001;;;12.76;100.0
22775;BME280;11554;51.106;3.684;2022-09-17T16:10:00;101852.31999999999;;;12.79;100.0
22775;BME280;11554;51.106;3.684;2022-09-17T16:15:00;101841.89;;;12.99;100.0
22775;BME280;11554;51.106;3.684;2022-09-17T16:20:04;101832.5;;;13.43;100.0
22775;BME280;11554;51.106;3.684;2022-09-17T16:25:00;101828.83;;;13.74;100.0
22775;BME280;11554;51.106;3.684;2022-09-17T16:30:00;101836.23999999999;;;13.76;100.0
22775;BME280;11554;51.106;3.684;2022-09-17T16:35:00;101857.06;;;13.50;100.0
22775;BME280;11554;51.106;3.684;2022-09-17T16:40:00;101855.40999999999;;;13.42;100.0
22775;BME280;11554;51.106;3.684;2022-09-17T16:45:00;101859.68000000001;;;13.20;100.0
22775;BME280;11554;51.106;3.684;2022-09-17T16:50:00;101864.35;;;13.06;100.0
22775;BME280;11554;51.106;3.684;2022-09-17T16:55:00;101867.58;;;12.91;100.0
22775;BME280;11554;51.106;3.684;2022-09-17T17:00:00;101866.58;;;12.79;100.0
22775;BME280;11554;51.106;3.684;2022-09-17T17:05:00;101862.55;;;12.71;100.0
22775;BME280;11554;51.106;3.684;2022-09-17T17:10:00;101866.18;;;12.55;100.0
22775;BME280;11554;51.106;3.684;2022-09-17T17:15:00;101871.66;;;12.43;100.0
22775;BME280;11554;51.106;3.684;2022-09-17T17:20:00;101881.2;;;12.34;100.0
22775;BME280;11554;51.106;3.684;2022-09-17T17:25:00;101881.59000000001;;;12.24;100.0
22775;BME280;11554;51.106;3.684;2022-09-17T17:30:00;101888.94;;;12.14;100.0
22775;BME280;11554;51.106;3.684;2022-09-17T17:35:00;101880.83;;;12.04;100.0
22775;BME280;11554;51.106;3.684;2022-09-17T17:40:00;101880.2;;;11.99;100.0
22775;BME280;11554;51.106;3.684;2022-09-17T17:45:00;101878.54999999999;;;11.84;100.0
22775;BME280;11554;51.106;3.684;2022-09-17T17:50:00;101881.22;;;11.66;100.0
22775;BME280;11554;51.106;3.684;2022-09-17T17:55:00;101875.87;;;11.53;100.0
22775;BME280;11554;51.106;3.684;2022-09-17T18:00:00;101878.54999999999;;;11.43;100.0
22775;BME280;11554;51.106;3.684;2022-09-17T18:05:00;101870.39;;;11.36;100.0
22775;BME280;11554;51.106;3.684;2022-09-17T18:10:00;101869.73000000001;;;11.36;100.0
22775;BME280;11554;51.106;3.684;2022-09-17T18:15:00;101868.59;;;11.36;100.0
22775;BME280;11554;51.106;3.684;2022-09-17T18:20:00;101872.25;;;11.33;100.0
22775;BME280;11554;51.106;3.684;2022-09-17T18:25:00;101881.32;;;11.25;100.0
22775;BME280;11554;51.106;3.684;2022-09-17T18:30:00;101884.09;;;11.24;100.0
22775;BME280;11554;51.106;3.684;2022-09-17T18:35:00;101888.51;;;11.24;100.0
22775;BME280;11554;51.106;3.684;2022-09-17T18:40:00;101893.15000000001;;;11.21;100.0
22775;BME280;11554;51.106;3.684;2022-09-17T18:45:00;101896.52;;;11.13;100.0
22775;BME280;11554;51.106;3.684;2022-09-17T18:50:00;101894.14;;;11.04;100.0
22775;BME280;11554;51.106;3.684;2022-09-17T18:55:00;101899.13;;;10.99;100.0
22775;BME280;11554;51.106;3.684;2022-09-17T19:00:00;101907.44;;;11.00;100.0
22775;BME280;11554;51.106;3.684;2022-09-17T19:05:00;101912.71;;;11.04;100.0
22775;BME280;11554;51.106;3.684;2022-09-17T19:10:00;101921.42;;;11.09;100.0
22775;BME280;11554;51.106;3.684;2022-09-17T19:15:00;101927.51;;;11.12;100.0
22775;BME280;11554;51.106;3.684;2022-09-17T19:20:00;101932.70999999999;;;11.02;100.0
22775;BME280;11554;51.106;3.684;2022-09-17T19:25:00;101934.27;;;10.91;100.0
22775;BME280;11554;51.106;3.684;2022-09-17T19:30:00;101928.05;;;10.84;100.0
22775;BME280;11554;51.106;3.684;2022-09-17T19:35:00;101920.01000000001;;;10.83;100.0
22775;BME280;11554;51.106;3.684;2022-09-17T19:40:00;101919.55;;;10.83;100.0
22775;BME280;11554;51.106;3.684;2022-09-17T19:45:00;101925.08;;;10.83;100.0
22775;BME280;11554;51.106;3.684;2022-09-17T19:50:00;101923.91;;;10.86;100.0
22775;BME280;11554;51.106;3.684;2022-09-17T19:55:00;101918.75;;;10.85;100.0
22775;BME280;11554;51.106;3.684;2022-09-17T20:00:00;101922.89;;;10.83;100.0
22775;BME280;11554;51.106;3.684;2022-09-17T20:05:00;101920.92;;;10.88;100.0
22775;BME280;11554;51.106;3.684;2022-09-17T20:10:00;101934.42;;;10.90;100.0
22775;BME280;11554;51.106;3.684;2022-09-17T20:15:00;101957.28;;;10.98;100.0
22775;BME280;11554;51.106;3.684;2022-09-17T20:20:00;101962.51;;;10.99;100.0
22775;BME280;11554;51.106;3.684;2022-09-17T20:25:00;101940.76;;;10.96;100.0
22775;BME280;11554;51.106;3.684;2022-09-17T20:30:00;101941.74;;;10.94;100.0
22775;BME280;11554;51.106;3.684;2022-09-17T20:35:00;101945.7;;;10.92;100.0
22775;BME280;11554;51.106;3.684;2022-09-17T20:40:00;101947.02;;;10.93;100.0
22775;BME280;11554;51.106;3.684;2022-09-17T20:45:00;101953.0;;;10.93;100.0
22775;BME280;11554;51.106;3.684;2022-09-17T20:50:00;101952.15;;;10.94;100.0
22775;BME280;11554;51.106;3.684;2022-09-17T20:55:00;101929.25;;;10.96;100.0
22775;BME280;11554;51.106;3.684;2022-09-17T21:00:00;101929.16;;;10.96;100.0
22775;BME280;11554;51.106;3.684;2022-09-17T21:05:00;101923.65999999999;;;10.97;100.0
22775;BME280;11554;51.106;3.684;2022-09-17T21:10:00;101920.54000000001;;;10.95;100.0
22775;BME280;11554;51.106;3.684;2022-09-17T21:15:00;101920.31;;;10.86;100.0
22775;BME280;11554;51.106;3.684;2022-09-17T21:20:00;101926.19;;;10.84;100.0
22775;BME280;11554;51.106;3.684;2022-09-17T21:25:00;101926.65;;;10.84;100.0
22775;BME280;11554;51.106;3.684;2022-09-17T21:30:00;101930.18;;;10.85;100.0
22775;BME280;11554;51.106;3.684;2022-09-17T21:35:00;101927.9;;;10.86;100.0
22775;BME280;11554;51.106;3.684;2022-09-17T21:40:00;101929.3;;;10.86;100.0
22775;BME280;11554;51.106;3.684;2022-09-17T21:45:00;101921.17;;;10.81;100.0
22775;BME280;11554;51.106;3.684;2022-09-17T21:50:00;101919.8;;;10.68;100.0
22775;BME280;11554;51.106;3.684;2022-09-17T21:55:00;101929.22;;;10.65;100.0
22775;BME280;11554;51.106;3.684;2022-09-17T22:00:00;101918.61;;;10.72;100.0
22775;BME280;11554;51.106;3.684;2022-09-17T22:05:00;101922.16;;;10.77;100.0
22775;BME280;11554;51.106;3.684;2022-09-17T22:10:00;101919.06;;;10.85;100.0
22775;BME280;11554;51.106;3.684;2022-09-17T22:15:00;101909.33;;;10.86;100.0
22775;BME280;11554;51.106;3.684;2022-09-17T22:20:00;101916.99;;;10.87;100.0
22775;BME280;11554;51.106;3.684;2022-09-17T22:25:00;101920.1;;;10.89;100.0
22775;BME280;11554;51.106;3.684;2022-09-17T22:30:00;101922.56;;;10.92;100.0
22775;BME280;11554;51.106;3.684;2022-09-17T22:35:00;101921.37;;;10.97;100.0
22775;BME280;11554;51.106;3.684;2022-09-17T22:40:00;101923.99;;;10.94;100.0
22775;BME280;11554;51.106;3.684;2022-09-17T22:45:00;101920.87;;;10.93;100.0
22775;BME280;11554;51.106;3.684;2022-09-17T22:50:00;101926.06;;;10.93;100.0
22775;BME280;11554;51.106;3.684;2022-09-17T22:55:00;101918.91;;;10.92;100.0
22775;BME280;11554;51.106;3.684;2022-09-17T23:00:00;101913.42;;;10.92;100.0
22775;BME280;11554;51.106;3.684;2022-09-17T23:05:00;101908.18000000001;;;10.90;100.0
22775;BME280;11554;51.106;3.684;2022-09-17T23:10:00;101908.34;;;10.90;100.0
22775;BME280;11554;51.106;3.684;2022-09-17T23:15:00;101909.48;;;10.90;100.0
22775;BME280;11554;51.106;3.684;2022-09-17T23:20:00;101902.09;;;10.88;100.0
22775;BME280;11554;51.106;3.684;2022-09-17T23:25:00;101901.4;;;10.82;100.0
22775;BME280;11554;51.106;3.684;2022-09-17T23:30:00;101895.47;;;10.75;100.0
22775;BME280;11554;51.106;3.684;2022-09-17T23:35:00;101890.73;;;10.64;100.0
22775;BME280;11554;51.106;3.684;2022-09-17T23:40:00;101889.94;;;10.49;100.0
22775;BME280;11554;51.106;3.684;2022-09-17T23:45:00;101891.6;;;10.36;100.0
22775;BME280;11554;51.106;3.684;2022-09-17T23:50:00;101886.56;;;10.21;100.0
22775;BME280;11554;51.106;3.684;2022-09-17T23:55:00;101886.08;;;10.13;100.0
